High temp

Not for real navigation. The accuracy of this data is not assured See disclaimer for more information



ICAO NAME COUNTRY WIND Kt GUST Kt VIS m TEMP/DEW C BARO METAR
OIAG Omidieh Iran 19 0 9999 50/1 29.50 OIAG 161100Z 34019KT CAVOK 50/01 Q0999
KHHV Hoover Diana TX United States 17 24 12800 50/48 29.92 KHHV 161155Z AUTO 15017G24KT 8SM FEW022 FEW033 50/48 A2992 RMK A01
OIAM Bandar Mahshahr / Mahshahr Iran 10 0 9999 49/17 29.50 OIAM 161200Z 33010KT CAVOK 49/17 Q0999
OMQS 6 0 9999 48/-1 29.54 OMQS 161200Z 30006KT 260V340 9999 CAVOK 48/M01 Q1000 A2954
OKAS 6 0 9999 48/1 29.57 OKAS 161156Z VRB06KT 9999 CAVOK 48/01 A2957 RMK AO2A SLP006 WND DATA ESTMD T04830006 10497 20046 570

Show more